Time;durP1;ratioP1;P1;durP2;ratioP2;P2;SDS_P1;SDS_P2;PMS_P1;PMS_P2;Temp;Humidity;BMP_temperature;BMP_pressure;BME280_temperature;BME280_humidity;BME280_pressure;Samples;Min_cycle;Max_cycle;Signal;HPM_P1;HPM_P2
2023/01/04 00:02:06;;;;;;;98.57;48.80;;;;;;;5.36;100.00;100257.91;5090304;28;20226;-48
2023/01/04 00:04:33;;;;;;;94.90;48.90;;;;;;;5.24;100.00;100260.41;5090486;28;20188;-47
2023/01/04 00:07:01;;;;;;;98.83;49.73;;;;;;;5.24;100.00;100257.84;5090431;28;20192;-48
2023/01/04 00:09:28;;;;;;;107.67;51.43;;;;;;;5.24;100.00;100263.84;5090305;28;20198;-48
2023/01/04 00:11:55;;;;;;;104.93;50.57;;;;;;;5.18;100.00;100263.84;5090079;28;20201;-47
2023/01/04 00:14:22;;;;;;;119.53;64.00;;;;;;;5.13;100.00;100274.94;5090283;28;20206;-49
2023/01/04 00:16:49;;;;;;;97.73;49.47;;;;;;;5.15;100.00;100270.66;5090033;28;20242;-47
2023/01/04 00:19:16;;;;;;;95.10;47.53;;;;;;;5.11;100.00;100273.22;5090150;28;20203;-47
2023/01/04 00:21:43;;;;;;;91.40;47.20;;;;;;;5.12;100.00;100279.22;5090004;28;20223;-48
2023/01/04 00:24:14;;;;;;;87.77;45.13;;;;;;;5.16;100.00;100280.97;5089952;28;20192;-47
2023/01/04 00:26:41;;;;;;;84.60;44.10;;;;;;;5.16;100.00;100275.81;5089940;28;20288;-48
2023/01/04 00:29:07;;;;;;;80.83;43.00;;;;;;;5.21;100.00;100276.69;5089721;28;20198;-48
2023/01/04 00:31:35;;;;;;;89.80;44.37;;;;;;;5.23;100.00;100276.69;5090156;28;20595;-47
2023/01/04 00:34:04;;;;;;;85.80;43.60;;;;;;;5.16;100.00;100277.53;5089781;28;20242;-48
2023/01/04 00:36:32;;;;;;;75.43;40.40;;;;;;;5.05;100.00;100274.91;5089831;28;20207;-48
2023/01/04 00:39:11;;;;;;;84.87;43.27;;;;;;;5.11;100.00;100280.94;5089550;28;20559;-46
2023/01/04 00:41:42;;;;;;;80.40;43.53;;;;;;;5.19;100.00;100270.72;5089519;28;20239;-47
2023/01/04 00:44:09;;;;;;;84.00;42.23;;;;;;;5.15;100.00;100265.53;5089644;28;20202;-48
2023/01/04 00:46:36;;;;;;;79.57;41.20;;;;;;;5.16;100.00;100290.41;5089703;28;20614;-49
2023/01/04 00:49:04;;;;;;;80.63;41.40;;;;;;;5.19;100.00;100280.13;5089597;28;20201;-46
2023/01/04 00:51:33;;;;;;;76.63;41.17;;;;;;;5.28;100.00;100280.19;5088536;28;20191;-47
2023/01/04 00:54:01;;;;;;;76.70;40.47;;;;;;;5.26;100.00;100281.88;5088008;28;20195;-46
2023/01/04 00:56:28;;;;;;;84.07;42.80;;;;;;;5.18;100.00;100274.13;5089480;28;20202;-48
2023/01/04 00:58:58;;;;;;;82.63;42.40;;;;;;;5.23;100.00;100281.84;5089167;28;20639;-56
2023/01/04 01:01:26;;;;;;;84.23;42.43;;;;;;;5.27;100.00;100289.59;5089398;28;20218;-47
2023/01/04 01:03:54;;;;;;;83.57;41.37;;;;;;;5.32;100.00;100292.19;5089479;28;20203;-49
2023/01/04 01:06:23;;;;;;;83.20;41.30;;;;;;;5.28;100.00;100301.63;5089330;28;20192;-48
2023/01/04 01:08:51;;;;;;;83.63;41.17;;;;;;;5.23;100.00;100305.00;5089579;28;20636;-47
2023/01/04 01:11:18;;;;;;;78.50;38.60;;;;;;;5.32;100.00;100302.47;5089326;28;20203;-56
2023/01/04 01:13:45;;;;;;;71.23;39.20;;;;;;;5.17;100.00;100289.56;5089492;28;20199;-57
2023/01/04 01:16:15;;;;;;;67.90;39.87;;;;;;;5.22;100.00;100293.00;5089122;28;20581;-57
2023/01/04 01:18:44;;;;;;;69.63;37.90;;;;;;;5.10;100.00;100297.22;5089204;28;20594;-56
2023/01/04 01:21:14;;;;;;;72.10;39.33;;;;;;;5.07;100.00;100288.66;5089175;28;20196;-57
2023/01/04 01:23:42;;;;;;;65.73;35.50;;;;;;;4.95;100.00;100286.88;5089255;28;20191;-56
2023/01/04 01:26:11;;;;;;;58.77;34.77;;;;;;;4.92;100.00;100291.97;5089086;28;20244;-56
2023/01/04 01:28:38;;;;;;;66.70;36.90;;;;;;;4.68;100.00;100291.81;5089202;28;20208;-56
2023/01/04 01:31:07;;;;;;;68.93;37.30;;;;;;;4.80;100.00;100276.47;5088943;28;20201;-56
2023/01/04 01:33:36;;;;;;;63.30;36.53;;;;;;;4.94;100.00;100292.84;5089274;28;20208;-57
2023/01/04 01:36:04;;;;;;;66.63;36.27;;;;;;;5.01;100.00;100286.88;5089108;28;20203;-56
2023/01/04 01:38:31;;;;;;;64.83;36.20;;;;;;;5.03;100.00;100289.47;5089201;28;20225;-57
2023/01/04 01:40:58;;;;;;;67.57;35.70;;;;;;;4.94;100.00;100272.28;5089044;28;20241;-57
2023/01/04 01:43:50;;;;;;;59.37;34.73;;;;;;;5.08;100.00;100288.63;5088813;28;20612;-56
2023/01/04 01:46:22;;;;;;;65.47;34.37;;;;;;;5.15;100.00;100288.69;5089026;28;20202;-56
2023/01/04 01:48:53;;;;;;;67.60;34.67;;;;;;;5.01;100.00;100286.88;5088953;28;20203;-56
2023/01/04 01:51:20;;;;;;;55.37;31.90;;;;;;;5.00;100.00;100286.88;5088881;28;20205;-55
2023/01/04 01:53:53;;;;;;;63.90;33.27;;;;;;;4.96;100.00;100292.88;5088956;28;20199;-48
2023/01/04 01:56:20;;;;;;;79.83;41.77;;;;;;;5.04;100.00;100288.63;5089191;28;20298;-48
2023/01/04 01:58:53;;;;;;;81.20;41.23;;;;;;;4.89;100.00;100273.94;5088544;28;20203;-48
2023/01/04 02:01:21;;;;;;;84.70;42.27;;;;;;;4.88;100.00;100279.94;5088508;28;20198;-48
2023/01/04 02:03:48;;;;;;;78.33;41.53;;;;;;;4.86;100.00;100271.34;5089842;28;20225;-46
2023/01/04 02:06:21;;;;;;;67.43;36.87;;;;;;;4.94;100.00;100280.00;5091813;28;20210;-47
2023/01/04 02:08:49;;;;;;;60.97;34.23;;;;;;;4.94;100.00;100282.56;5092310;28;20282;-48
2023/01/04 02:11:16;;;;;;;58.97;33.93;;;;;;;4.85;100.00;100279.94;5092595;28;20589;-56
2023/01/04 02:16:42;;;;;;;60.67;31.90;;;;;;;4.83;100.00;100280.78;5093187;28;20203;-47
2023/01/04 02:19:31;;;;;;;54.67;32.57;;;;;;;4.87;100.00;100273.06;5089748;28;20195;-47
2023/01/04 02:22:22;;;;;;;55.47;32.50;;;;;;;4.85;100.00;100272.22;5092246;28;20229;-46
2023/01/04 02:25:11;;;;;;;56.83;31.20;;;;;;;4.88;100.00;100279.06;5092297;28;20203;-48
2023/01/04 02:27:55;;;;;;;87.07;42.50;;;;;;;4.87;100.00;100278.22;5092522;28;20622;-48
2023/01/04 02:31:03;;;;;;;55.83;33.13;;;;;;;4.82;100.00;100277.34;5092145;28;20214;-57
2023/01/04 02:33:41;;;;;;;61.47;31.97;;;;;;;4.89;100.00;100276.53;5092241;28;20195;-57
2023/01/04 02:36:14;;;;;;;61.33;32.60;;;;;;;4.85;100.00;100273.94;5092095;28;20199;-56
2023/01/04 02:38:52;;;;;;;53.73;30.17;;;;;;;4.75;100.00;100276.41;5091977;28;20197;-47
2023/01/04 02:41:25;;;;;;;58.03;32.07;;;;;;;4.82;100.00;100269.63;5091867;28;20242;-47
2023/01/04 02:46:47;;;;;;;51.57;29.63;;;;;;;4.89;100.00;100279.09;5091864;28;20200;-48
2023/01/04 02:51:59;;;;;;;54.77;30.53;;;;;;;4.90;100.00;100283.38;5091818;28;20698;-56
2023/01/04 02:54:31;;;;;;;56.20;31.97;;;;;;;4.94;100.00;100284.28;5091570;28;20209;-55
2023/01/04 02:57:16;;;;;;;57.57;32.00;;;;;;;4.92;100.00;100283.41;5091598;28;20199;-56
2023/01/04 02:59:59;;;;;;;54.63;30.23;;;;;;;4.86;100.00;100286.78;5091636;28;20215;-56
2023/01/04 03:08:32;;;;;;;58.27;31.97;;;;;;;4.43;100.00;100297.59;5091611;28;20204;-47
2023/01/04 03:11:03;;;;;;;56.50;31.97;;;;;;;4.50;100.00;100302.81;5091136;28;20205;-47
2023/01/04 03:13:35;;;;;;;58.23;33.80;;;;;;;4.41;100.00;100301.84;5091392;28;20194;-48
2023/01/04 03:16:06;;;;;;;64.97;35.57;;;;;;;4.31;100.00;100304.34;5090591;28;20210;-48
2023/01/04 03:18:40;;;;;;;62.73;34.53;;;;;;;4.31;100.00;100311.19;5091439;28;20192;-47
2023/01/04 03:21:09;;;;;;;66.97;36.27;;;;;;;4.11;100.00;100308.44;5091299;28;20618;-48
2023/01/04 03:37:48;;;;;;;61.33;32.90;;;;;;;3.77;100.00;100314.06;5090896;28;20198;-47
2023/01/04 03:48:59;;;;;;;53.40;28.73;;;;;;;3.41;100.00;100317.91;5090752;28;20283;-57
2023/01/04 03:51:31;;;;;;;49.03;28.10;;;;;;;3.31;100.00;100331.47;5090644;28;20195;-56
2023/01/04 03:54:02;;;;;;;47.40;27.67;;;;;;;3.18;100.00;100324.44;5090696;28;20187;-57
2023/01/04 03:56:31;;;;;;;53.63;28.57;;;;;;;3.12;100.00;100321.81;5090685;28;20195;-57
2023/01/04 03:58:58;;;;;;;51.80;27.80;;;;;;;2.89;100.00;100319.78;5090087;28;20195;-57
2023/01/04 04:01:27;;;;;;;48.47;25.50;;;;;;;2.84;100.00;100300.03;5090424;28;20203;-48
2023/01/04 04:09:24;;;;;;;48.13;25.47;;;;;;;2.64;100.00;100317.66;5090229;28;20214;-48
2023/01/04 04:11:51;;;;;;;45.77;27.73;;;;;;;2.59;100.00;100321.88;5090200;28;20197;-48
2023/01/04 04:14:18;;;;;;;48.27;27.90;;;;;;;2.73;100.00;100325.50;5090014;28;20205;-48
2023/01/04 04:16:45;;;;;;;51.50;27.93;;;;;;;2.52;100.00;100320.03;5090180;28;20579;-48
2023/01/04 04:19:12;;;;;;;55.93;30.37;;;;;;;2.46;100.00;100322.50;5090192;28;20204;-48
2023/01/04 04:21:40;;;;;;;56.10;31.00;;;;;;;2.44;100.00;100301.97;5089540;28;20199;-48
2023/01/04 04:24:07;;;;;;;59.77;31.33;;;;;;;2.37;100.00;100314.66;5089620;28;20233;-47
2023/01/04 04:26:34;;;;;;;65.67;32.90;;;;;;;2.42;100.00;100325.84;5089597;28;20292;-56
2023/01/04 04:29:01;;;;;;;58.63;29.87;;;;;;;2.43;100.00;100331.00;5089758;28;20694;-55
2023/01/04 04:31:28;;;;;;;71.20;38.23;;;;;;;2.36;100.00;100328.31;5089805;28;20584;-55
2023/01/04 04:33:55;;;;;;;64.33;34.17;;;;;;;2.33;100.00;100328.25;5089586;28;20587;-55
2023/01/04 04:36:22;;;;;;;66.40;34.17;;;;;;;2.28;100.00;100338.41;5089425;28;20230;-56
2023/01/04 04:38:50;;;;;;;54.73;31.23;;;;;;;2.32;100.00;100342.75;5089553;28;20202;-56
2023/01/04 04:44:01;;;;;;;57.87;30.30;;;;;;;2.35;100.00;100337.69;5089236;28;20256;-56
2023/01/04 04:46:28;;;;;;;52.00;28.70;;;;;;;2.41;100.00;100336.91;5089499;28;20195;-56
2023/01/04 04:48:55;;;;;;;52.80;29.17;;;;;;;2.41;100.00;100336.91;5089389;28;20195;-57
2023/01/04 04:51:22;;;;;;;54.03;28.83;;;;;;;2.33;100.00;100341.06;5089169;28;20199;-57
2023/01/04 04:53:50;;;;;;;52.73;28.83;;;;;;;2.38;100.00;100331.72;5089690;28;20191;-57
2023/01/04 04:56:17;;;;;;;53.30;29.10;;;;;;;2.39;100.00;100334.31;5089511;28;20202;-47
2023/01/04 04:58:44;;;;;;;52.50;30.07;;;;;;;2.41;100.00;100342.91;5089446;28;20196;-47
2023/01/04 05:01:11;;;;;;;55.77;28.97;;;;;;;2.60;100.00;100351.75;5089587;28;20198;-48
2023/01/04 05:03:38;;;;;;;55.87;29.70;;;;;;;2.47;100.00;100354.97;5085588;28;20226;-48
2023/01/04 05:06:05;;;;;;;50.57;28.17;;;;;;;2.44;100.00;100363.47;5068602;28;20611;-57
2023/01/04 05:08:32;;;;;;;49.13;27.93;;;;;;;2.48;100.00;100370.34;5068747;28;20755;-56
2023/01/04 05:11:06;;;;;;;47.40;28.77;;;;;;;2.50;100.00;100373.81;5068193;28;20252;-48
2023/01/04 05:13:32;;;;;;;48.47;28.27;;;;;;;2.41;100.00;100381.34;5068739;28;20701;-49
2023/01/04 05:15:59;;;;;;;47.10;27.53;;;;;;;2.45;100.00;100377.16;5079270;28;20257;-49
2023/01/04 05:18:26;;;;;;;44.57;25.63;;;;;;;2.47;100.00;100378.03;5087908;28;20228;-58
2023/01/04 05:20:53;;;;;;;40.20;24.70;;;;;;;2.48;100.00;100382.31;5086852;28;20224;-56
2023/01/04 05:23:21;;;;;;;38.43;24.87;;;;;;;2.56;100.00;100391.00;5087534;28;20348;-47
2023/01/04 05:25:52;;;;;;;41.07;24.30;;;;;;;2.70;100.00;100389.53;5086269;28;20226;-46
2023/01/04 05:28:20;;;;;;;42.40;24.47;;;;;;;2.78;100.00;100395.66;5087796;28;20200;-48
2023/01/04 05:30:52;;;;;;;43.73;23.87;;;;;;;2.80;100.00;100393.13;5087646;28;20195;-47
2023/01/04 05:33:20;;;;;;;39.40;23.00;;;;;;;2.77;100.00;100393.94;5088884;28;20200;-47
2023/01/04 05:35:47;;;;;;;43.63;23.20;;;;;;;2.75;100.00;100397.28;5089676;28;20674;-48
2023/01/04 05:38:14;;;;;;;44.23;23.53;;;;;;;2.76;100.00;100391.34;5089853;28;20212;-47
2023/01/04 05:40:41;;;;;;;39.63;22.87;;;;;;;2.71;100.00;100390.41;5093130;28;20230;-47
2023/01/04 05:43:08;;;;;;;36.00;23.57;;;;;;;2.81;100.00;100395.72;5092894;28;20336;-48
2023/01/04 05:45:37;;;;;;;42.23;23.37;;;;;;;2.78;100.00;100397.34;5092986;28;20194;-47
2023/01/04 05:48:04;;;;;;;41.47;24.13;;;;;;;2.77;100.00;100396.50;5093097;28;20701;-57
2023/01/04 05:50:31;;;;;;;40.03;23.37;;;;;;;2.83;100.00;100406.84;5093239;28;20206;-57
2023/01/04 05:52:58;;;;;;;42.90;24.13;;;;;;;2.90;100.00;100403.56;5092738;28;20194;-57
2023/01/04 05:55:25;;;;;;;41.73;23.90;;;;;;;2.95;100.00;100410.44;5092449;28;20240;-56
2023/01/04 05:57:52;;;;;;;37.13;23.30;;;;;;;2.81;100.00;100390.59;5092650;28;20209;-57
2023/01/04 06:00:19;;;;;;;41.70;24.40;;;;;;;2.87;100.00;100400.94;5092755;28;20209;-57
2023/01/04 06:02:47;;;;;;;42.80;23.97;;;;;;;2.68;100.00;100409.16;5092967;28;20196;-56
2023/01/04 06:05:14;;;;;;;46.10;26.03;;;;;;;2.58;100.00;100422.66;5092543;28;20198;-55
2023/01/04 06:07:41;;;;;;;48.53;26.67;;;;;;;2.74;100.00;100408.38;5092703;28;20577;-48
2023/01/04 06:10:10;;;;;;;50.63;26.93;;;;;;;2.89;100.00;100419.78;5092421;28;20195;-48
2023/01/04 06:12:38;;;;;;;46.37;26.17;;;;;;;2.93;100.00;100431.78;5092449;28;20205;-48
2023/01/04 06:15:06;;;;;;;51.83;26.87;;;;;;;2.78;100.00;100420.44;5092518;28;20233;-56
2023/01/04 06:17:34;;;;;;;50.57;27.77;;;;;;;2.82;100.00;100417.91;5092460;28;20205;-57
2023/01/04 06:20:02;;;;;;;51.07;29.73;;;;;;;2.91;100.00;100418.09;5092194;28;20204;-49
2023/01/04 06:22:29;;;;;;;52.63;31.17;;;;;;;2.92;100.00;100408.72;5092368;28;20585;-49
2023/01/04 06:24:56;;;;;;;64.23;30.13;;;;;;;3.08;100.00;100426.03;5091972;28;20637;-49
2023/01/04 06:27:23;;;;;;;55.80;29.67;;;;;;;3.10;100.00;100432.06;5092140;28;20198;-47
2023/01/04 06:29:50;;;;;;;55.37;29.03;;;;;;;3.04;100.00;100437.13;5091988;28;20199;-48
2023/01/04 06:32:17;;;;;;;56.20;28.07;;;;;;;3.22;100.00;100444.22;5092336;28;20692;-48
2023/01/04 06:34:44;;;;;;;51.40;28.07;;;;;;;3.29;100.00;100446.03;5092078;28;20198;-49
2023/01/04 06:37:12;;;;;;;52.37;27.57;;;;;;;3.33;100.00;100450.38;5091989;28;20209;-49
2023/01/04 06:39:39;;;;;;;45.97;26.80;;;;;;;3.32;100.00;100451.22;5091748;28;20226;-48
2023/01/04 06:42:43;;;;;;;52.80;30.07;;;;;;;3.35;100.00;100453.84;5092086;28;20692;-57
2023/01/04 06:44:53;;;;;;;47.50;27.20;;;;;;;3.39;100.00;100453.03;5091863;28;20682;-58
2023/01/04 06:47:21;;;;;;;44.37;26.33;;;;;;;3.28;100.00;100431.47;5091877;28;20209;-58
2023/01/04 06:49:48;;;;;;;49.23;27.07;;;;;;;3.49;100.00;100459.19;5090925;28;20574;-56
2023/01/04 06:52:17;;;;;;;52.87;30.27;;;;;;;3.54;100.00;100467.81;5091415;28;20196;-57
2023/01/04 06:54:44;;;;;;;54.63;28.43;;;;;;;3.64;100.00;100469.66;5091754;28;20213;-57
2023/01/04 06:57:11;;;;;;;52.33;29.60;;;;;;;3.71;100.00;100465.50;5091387;28;20696;-60
2023/01/04 06:59:37;;;;;;;59.93;32.00;;;;;;;3.73;100.00;100468.91;5092028;28;20234;-58
2023/01/04 07:02:07;;;;;;;63.67;34.17;;;;;;;3.75;100.00;100468.09;5091965;28;20199;-57
2023/01/04 07:04:34;;;;;;;59.37;32.47;;;;;;;3.76;100.00;100471.53;5091450;28;20268;-58
2023/01/04 07:07:02;;;;;;;54.90;32.37;;;;;;;3.79;100.00;100469.88;5091377;28;20205;-57
2023/01/04 07:09:30;;;;;;;65.20;32.47;;;;;;;3.92;100.00;100461.50;5091584;28;20675;-57
2023/01/04 07:11:58;;;;;;;60.50;33.77;;;;;;;4.06;100.00;100459.13;5091466;28;20201;-57
2023/01/04 07:14:25;;;;;;;72.67;37.23;;;;;;;4.17;100.00;100456.69;5091481;28;20202;-58
2023/01/04 07:16:51;;;;;;;66.27;35.60;;;;;;;4.21;100.00;100461.84;5091585;28;20697;-57
2023/01/04 07:19:18;;;;;;;63.47;35.43;;;;;;;4.30;100.00;100458.53;5090938;28;20207;-58
2023/01/04 07:21:45;;;;;;;66.87;35.40;;;;;;;4.43;100.00;100460.41;5091204;28;20192;-58
2023/01/04 07:24:12;;;;;;;68.03;35.63;;;;;;;4.56;100.00;100469.09;5090973;28;20219;-58
2023/01/04 07:26:40;;;;;;;62.77;35.70;;;;;;;4.61;100.00;100475.19;5091129;28;20209;-58
2023/01/04 07:29:16;;;;;;;66.93;35.67;;;;;;;4.70;100.00;100472.69;5090989;28;20199;-57
2023/01/04 07:31:45;;;;;;;62.20;35.07;;;;;;;4.80;100.00;100468.50;5090901;28;20195;-48
2023/01/04 07:34:12;;;;;;;58.93;33.50;;;;;;;4.78;100.00;100471.06;5090977;28;20197;-48
2023/01/04 07:36:39;;;;;;;62.70;32.90;;;;;;;4.86;100.00;100478.84;5091031;28;20601;-58
2023/01/04 07:39:08;;;;;;;61.83;35.00;;;;;;;4.81;100.00;100472.78;5090726;28;20203;-57
2023/01/04 07:41:36;;;;;;;58.30;33.30;;;;;;;4.96;100.00;100475.53;5090555;28;20587;-58
2023/01/04 07:44:05;;;;;;;74.23;39.33;;;;;;;5.04;100.00;100468.72;5090465;28;20222;-57
2023/01/04 07:46:32;;;;;;;76.50;43.93;;;;;;;5.06;100.00;100455.03;5090965;28;20205;-57
2023/01/04 07:48:59;;;;;;;109.47;55.53;;;;;;;5.31;100.00;100480.94;5090646;28;20276;-58
2023/01/04 07:51:26;;;;;;;99.07;51.33;;;;;;;5.41;100.00;100472.47;5091040;28;20207;-58
2023/01/04 07:53:53;;;;;;;67.13;36.30;;;;;;;5.48;100.00;100476.81;5090734;28;20191;-60
2023/01/04 07:56:20;;;;;;;62.20;37.13;;;;;;;5.63;100.00;100476.91;5090603;28;20199;-62
2023/01/04 07:58:47;;;;;;;64.67;35.80;;;;;;;5.71;100.00;100476.94;5087516;28;20226;-56
2023/01/04 08:01:19;;;;;;;58.83;34.23;;;;;;;5.80;100.00;100477.00;5085991;28;20198;-59
2023/01/04 08:03:47;;;;;;;58.67;34.77;;;;;;;5.92;100.00;100471.94;5086384;28;20224;-59
2023/01/04 08:06:16;;;;;;;67.10;35.87;;;;;;;6.11;100.00;100485.78;5089485;28;20582;-59
2023/01/04 08:08:44;;;;;;;61.93;35.23;;;;;;;6.25;100.00;100491.00;5088996;28;20198;-59
2023/01/04 08:11:16;;;;;;;60.10;35.07;;;;;;;6.36;100.00;100490.19;5088695;28;20195;-58
2023/01/04 08:13:43;;;;;;;63.40;36.70;;;;;;;6.37;100.00;100494.50;5089460;28;20233;-58
2023/01/04 08:16:21;;;;;;;64.90;37.90;;;;;;;6.47;100.00;100493.66;5089642;28;20270;-57
2023/01/04 08:18:48;;;;;;;62.80;36.90;;;;;;;6.53;100.00;100478.22;5087483;28;20233;-61
2023/01/04 08:21:15;;;;;;;73.87;37.37;;;;;;;6.66;100.00;100493.75;5089502;28;20191;-60
2023/01/04 08:23:42;;;;;;;73.17;38.63;;;;;;;6.80;100.00;100492.03;5089376;28;20211;-57
2023/01/04 08:26:12;;;;;;;69.43;39.17;;;;;;;6.93;100.00;100489.50;5089204;28;20201;-58
2023/01/04 08:28:39;;;;;;;66.67;37.30;;;;;;;7.01;100.00;100484.31;5089356;28;20442;-60
2023/01/04 08:31:08;;;;;;;62.43;36.63;;;;;;;7.09;100.00;100492.97;5086551;28;20195;-58
2023/01/04 08:33:38;;;;;;;66.80;38.27;;;;;;;7.23;100.00;100485.19;5089315;28;20187;-58
2023/01/04 08:36:10;;;;;;;67.97;37.70;;;;;;;7.20;100.00;100475.75;5086415;28;20572;-58
2023/01/04 08:38:37;;;;;;;71.07;37.40;;;;;;;7.33;100.00;100473.19;5089141;28;20612;-58
2023/01/04 08:41:05;;;;;;;87.90;40.00;;;;;;;7.54;100.00;100489.50;5088820;28;20725;-58
2023/01/04 08:43:32;;;;;;;69.40;40.53;;;;;;;7.68;100.00;100481.72;5089088;28;20590;-49
2023/01/04 08:45:59;;;;;;;86.60;45.03;;;;;;;7.80;100.00;100476.53;5088870;28;20191;-49
2023/01/04 08:48:25;;;;;;;79.30;41.53;;;;;;;7.96;100.00;100475.66;5086372;28;20198;-49
2023/01/04 08:50:54;;;;;;;66.10;39.33;;;;;;;8.11;100.00;100473.88;5088772;28;20193;-49
2023/01/04 08:53:21;;;;;;;68.10;40.50;;;;;;;8.20;100.00;100477.28;5088590;28;20209;-51
2023/01/04 08:55:51;;;;;;;65.40;39.03;;;;;;;8.30;100.00;100478.09;5088894;28;20191;-48
2023/01/04 08:58:18;;;;;;;65.63;37.50;;;;;;;8.43;100.00;100478.94;5088603;28;20213;-48
2023/01/04 09:00:45;;;;;;;61.27;36.17;;;;;;;8.50;100.00;100476.31;5088686;28;20191;-48
2023/01/04 09:03:13;;;;;;;66.23;36.60;;;;;;;8.54;100.00;100465.09;5088870;28;20199;-47
2023/01/04 09:05:40;;;;;;;77.93;42.20;;;;;;;8.60;100.00;100461.59;5088512;28;20499;-48
2023/01/04 09:08:08;;;;;;;79.20;40.03;;;;;;;8.64;100.00;100459.00;5086101;28;20217;-49
2023/01/04 09:10:38;;;;;;;68.77;38.53;;;;;;;8.77;100.00;100464.09;5088910;28;20755;-49
2023/01/04 09:13:06;;;;;;;104.17;56.50;;;;;;;8.86;100.00;100461.44;5087741;28;20197;-58
2023/01/04 09:15:34;;;;;;;81.57;43.80;;;;;;;8.90;100.00;100450.22;5089029;28;20221;-57
2023/01/04 09:18:01;;;;;;;88.13;46.17;;;;;;;9.07;100.00;100456.09;5088314;28;20207;-58
2023/01/04 09:20:29;;;;;;;70.20;40.60;;;;;;;9.20;100.00;100457.72;5086200;28;20230;-58
2023/01/04 09:22:57;;;;;;;60.37;38.07;;;;;;;9.30;100.00;100443.81;5088913;28;20213;-59
2023/01/04 09:25:25;;;;;;;77.53;43.27;;;;;;;9.47;100.00;100446.28;5088421;28;20222;-62
2023/01/04 09:27:52;;;;;;;76.00;41.87;;;;;;;9.56;100.00;100441.00;5088394;28;20183;-58
2023/01/04 09:30:19;;;;;;;83.93;43.17;;;;;;;9.69;100.00;100433.97;5088087;28;20199;-58
2023/01/04 09:32:46;;;;;;;79.13;42.83;;;;;;;9.82;100.00;100435.53;5085201;28;20218;-57
2023/01/04 09:35:13;;;;;;;77.10;43.03;;;;;;;9.91;100.00;100425.06;5087748;28;20279;-57
2023/01/04 09:37:40;;;;;;;83.90;45.20;;;;;;;10.05;100.00;100428.34;5088413;28;20197;-58
2023/01/04 09:40:19;;;;;;;101.73;46.53;;;;;;;10.16;100.00;100410.91;5085706;28;20227;-58
2023/01/04 09:42:48;;;;;;;94.67;41.10;;;;;;;10.29;100.00;100414.22;5088545;28;20187;-60
2023/01/04 09:45:20;;;;;;;127.27;51.23;;;;;;;10.44;100.00;100420.97;5088135;28;20310;-58
2023/01/04 09:47:53;;;;;;;74.20;35.67;;;;;;;10.67;100.00;100408.50;5085663;28;20187;-57
2023/01/04 09:50:24;;;;;;;46.53;26.10;;;;;;;10.78;100.00;100403.16;5088281;28;20745;-59
2023/01/04 09:53:01;;;;;;;37.80;21.70;;;;;;;10.86;100.00;100399.53;5085924;28;20198;-57
2023/01/04 09:55:31;;;;;;;33.33;17.83;;;;;;;11.02;100.00;100394.13;5085331;28;20195;-58
2023/01/04 09:58:04;;;;;;;26.20;15.80;;;;;;;11.20;100.00;100394.66;5088564;28;20197;-57
2023/01/04 10:00:35;;;;;;;28.97;16.60;;;;;;;11.36;100.00;100387.44;5086214;28;20585;-58
2023/01/04 10:03:11;;;;;;;21.80;15.03;;;;;;;11.45;100.00;100387.28;5087544;28;20286;-58
2023/01/04 10:05:40;;;;;;;21.50;15.43;;;;;;;11.54;100.00;100383.63;5087569;28;20311;-58
2023/01/04 10:08:14;;;;;;;20.33;15.20;;;;;;;11.68;100.00;100381.63;5086606;28;20686;-57
2023/01/04 10:10:49;;;;;;;23.03;15.73;;;;;;;11.85;100.00;100381.34;5087922;28;20211;-58
2023/01/04 10:13:29;;;;;;;20.30;15.57;;;;;;;11.90;100.00;100377.75;5090413;28;20271;-60
2023/01/04 10:16:08;;;;;;;17.70;14.90;;;;;;;12.08;100.00;100378.25;5088418;28;20195;-58
2023/01/04 10:18:43;;;;;;;15.43;13.37;;;;;;;12.12;100.00;100379.91;5088142;28;20691;-59
2023/01/04 10:21:37;;;;;;;28.17;14.37;;;;;;;12.16;100.00;100369.41;5088050;28;20195;-59
2023/01/04 10:24:32;;;;;;;17.30;14.37;;;;;;;12.25;100.00;100373.56;5090477;28;20736;-61
2023/01/04 10:27:03;;;;;;;21.03;14.30;;;;;;;12.34;100.00;100371.59;5092639;28;20221;-60
2023/01/04 10:29:47;;;;;;;16.03;13.77;;;;;;;12.42;100.00;100373.16;5091875;28;20249;-60
2023/01/04 10:32:20;;;;;;;17.13;13.93;;;;;;;12.52;100.00;100372.09;5091739;28;20244;-60
2023/01/04 10:34:48;;;;;;;54.93;31.20;;;;;;;12.54;100.00;100370.28;5091150;28;20210;-51
2023/01/04 10:37:19;;;;;;;26.07;19.20;;;;;;;12.56;100.00;100369.38;5094017;28;20211;-50
2023/01/04 10:39:50;;;;;;;34.90;20.03;;;;;;;12.63;100.00;100370.94;5093063;28;20223;-50
2023/01/04 10:42:21;;;;;;;25.17;18.33;;;;;;;12.71;100.00;100370.75;5093974;28;20202;-50
2023/01/04 10:45:12;;;;;;;21.23;15.90;;;;;;;12.73;100.00;100367.22;5090844;28;20348;-51
2023/01/04 10:47:49;;;;;;;28.40;19.93;;;;;;;12.71;100.00;100358.59;5092815;28;20210;-52
2023/01/04 10:50:23;;;;;;;41.13;25.60;;;;;;;12.86;100.00;100362.59;5088963;28;20218;-51
2023/01/04 10:52:56;;;;;;;54.93;29.10;;;;;;;12.92;100.00;100362.41;5090321;28;20223;-51
2023/01/04 10:55:29;;;;;;;52.43;28.80;;;;;;;12.96;100.00;100358.00;5094294;28;20215;-51
2023/01/04 10:58:02;;;;;;;44.10;24.00;;;;;;;13.05;100.00;100349.94;5089865;28;20614;-51
2023/01/04 11:00:38;;;;;;;61.93;34.40;;;;;;;13.14;100.00;100347.13;5087545;28;20195;-51
2023/01/04 11:03:12;;;;;;;30.77;20.20;;;;;;;13.18;100.00;100347.91;5090415;28;20194;-51
2023/01/04 11:05:43;;;;;;;28.53;19.57;;;;;;;13.17;100.00;100348.81;5090283;28;20307;-52
2023/01/04 11:08:15;;;;;;;23.67;17.10;;;;;;;13.10;100.00;100337.63;5090014;28;20201;-51
2023/01/04 11:10:46;;;;;;;21.63;16.30;;;;;;;13.17;100.00;100343.59;5090263;28;20702;-52
2023/01/04 11:13:13;;;;;;;17.93;15.30;;;;;;;13.21;100.00;100338.22;5087645;28;20231;-50
2023/01/04 11:15:44;;;;;;;42.90;26.63;;;;;;;13.12;100.00;100328.03;5090385;28;20651;-50
2023/01/04 11:18:12;;;;;;;33.83;19.53;;;;;;;13.21;100.00;100345.19;5087314;28;20625;-51
2023/01/04 11:20:39;;;;;;;25.47;18.47;;;;;;;13.25;100.00;100341.63;5090114;28;20230;-51
2023/01/04 11:23:12;;;;;;;39.57;23.03;;;;;;;13.21;100.00;100340.84;5089780;28;20278;-52
2023/01/04 11:25:43;;;;;;;25.17;18.23;;;;;;;13.26;100.00;100345.94;5089980;28;20222;-50
2023/01/04 11:28:16;;;;;;;29.43;17.93;;;;;;;13.28;100.00;100354.59;5089748;28;20199;-51
2023/01/04 11:30:53;;;;;;;25.67;14.77;;;;;;;13.31;100.00;100344.94;5089620;28;20195;-51
2023/01/04 11:33:24;;;;;;;29.73;16.13;;;;;;;13.28;100.00;100347.63;5088417;28;20292;-61
2023/01/04 11:35:53;;;;;;;31.83;20.07;;;;;;;13.34;100.00;100343.97;5084586;28;21000;-60
2023/01/04 11:38:22;;;;;;;27.17;16.90;;;;;;;13.29;100.00;100319.81;5088308;28;20329;-60
2023/01/04 11:40:59;;;;;;;25.83;18.47;;;;;;;13.44;100.00;100338.47;5089405;28;20215;-60
2023/01/04 11:43:27;;;;;;;21.40;16.57;;;;;;;13.46;100.00;100338.44;5089336;28;20202;-60
2023/01/04 11:45:58;;;;;;;42.60;27.17;;;;;;;13.56;100.00;100345.09;5089398;28;20702;-60
2023/01/04 11:48:40;;;;;;;36.63;25.00;;;;;;;13.58;100.00;100338.09;5089202;28;21250;-52
2023/01/04 11:51:18;;;;;;;24.20;16.17;;;;;;;13.58;100.00;100338.09;5087705;28;20873;-52
2023/01/04 11:53:56;;;;;;;21.10;16.43;;;;;;;13.54;100.00;100330.41;5088022;28;20195;-50
2023/01/04 11:56:24;;;;;;;25.90;19.27;;;;;;;13.54;100.00;100330.41;5086619;28;20187;-50
2023/01/04 11:59:12;;;;;;;21.23;15.47;;;;;;;13.62;100.00;100334.53;5087998;28;20196;-51
2023/01/04 12:01:43;;;;;;;20.40;15.90;;;;;;;13.67;99.72;100337.84;5087924;28;20214;-51
2023/01/04 12:04:13;;;;;;;23.93;19.03;;;;;;;13.66;99.02;100337.88;5088690;28;20207;-51
2023/01/04 12:06:45;;;;;;;19.00;15.90;;;;;;;13.65;99.56;100339.66;5086062;28;20215;-51